sensor_id;sensor_type;location;lat;lon;timestamp;temperature;humidity
13148;DHT22;6639;50.956;4.242;2023-10-19T00:01:57;20.70;99.90
13148;DHT22;6639;50.956;4.242;2023-10-19T00:04:25;20.50;99.90
13148;DHT22;6639;50.956;4.242;2023-10-19T00:06:51;20.60;99.90
13148;DHT22;6639;50.956;4.242;2023-10-19T00:09:18;20.80;99.90
13148;DHT22;6639;50.956;4.242;2023-10-19T00:11:45;20.80;99.90
13148;DHT22;6639;50.956;4.242;2023-10-19T00:14:13;20.80;99.90
13148;DHT22;6639;50.956;4.242;2023-10-19T00:16:43;20.70;99.90
13148;DHT22;6639;50.956;4.242;2023-10-19T00:19:12;20.50;99.90
13148;DHT22;6639;50.956;4.242;2023-10-19T00:21:44;20.60;99.90
13148;DHT22;6639;50.956;4.242;2023-10-19T00:24:17;20.80;99.90
13148;DHT22;6639;50.956;4.242;2023-10-19T00:26:47;20.80;99.90
13148;DHT22;6639;50.956;4.242;2023-10-19T00:29:13;20.60;99.90
13148;DHT22;6639;50.956;4.242;2023-10-19T00:31:56;20.80;99.90
13148;DHT22;6639;50.956;4.242;2023-10-19T00:34:24;21.00;99.90
13148;DHT22;6639;50.956;4.242;2023-10-19T00:36:52;20.90;99.90
13148;DHT22;6639;50.956;4.242;2023-10-19T00:39:21;20.80;99.90
13148;DHT22;6639;50.956;4.242;2023-10-19T00:41:49;20.90;99.90
13148;DHT22;6639;50.956;4.242;2023-10-19T00:44:21;21.10;99.90
13148;DHT22;6639;50.956;4.242;2023-10-19T00:47:01;21.20;99.90
13148;DHT22;6639;50.956;4.242;2023-10-19T00:49:30;21.30;99.90
13148;DHT22;6639;50.956;4.242;2023-10-19T00:51:59;21.70;99.90
13148;DHT22;6639;50.956;4.242;2023-10-19T00:54:39;22.00;99.90
13148;DHT22;6639;50.956;4.242;2023-10-19T00:57:08;22.00;99.90
13148;DHT22;6639;50.956;4.242;2023-10-19T00:59:36;21.80;99.90
13148;DHT22;6639;50.956;4.242;2023-10-19T01:02:08;21.80;99.90
13148;DHT22;6639;50.956;4.242;2023-10-19T01:04:48;21.90;99.90
13148;DHT22;6639;50.956;4.242;2023-10-19T01:07:21;21.90;99.90
13148;DHT22;6639;50.956;4.242;2023-10-19T01:09:53;21.80;99.90
13148;DHT22;6639;50.956;4.242;2023-10-19T01:12:22;21.70;99.90
13148;DHT22;6639;50.956;4.242;2023-10-19T01:15:03;21.70;99.90
13148;DHT22;6639;50.956;4.242;2023-10-19T01:17:31;21.70;99.90
13148;DHT22;6639;50.956;4.242;2023-10-19T01:20:01;21.70;99.90
13148;DHT22;6639;50.956;4.242;2023-10-19T01:22:37;21.80;99.90
13148;DHT22;6639;50.956;4.242;2023-10-19T01:25:07;22.00;99.90
13148;DHT22;6639;50.956;4.242;2023-10-19T01:27:36;21.70;99.90
13148;DHT22;6639;50.956;4.242;2023-10-19T01:30:05;21.50;99.90
13148;DHT22;6639;50.956;4.242;2023-10-19T01:32:34;21.70;99.90
13148;DHT22;6639;50.956;4.242;2023-10-19T01:35:01;21.30;99.90
13148;DHT22;6639;50.956;4.242;2023-10-19T01:37:28;21.20;99.90
13148;DHT22;6639;50.956;4.242;2023-10-19T01:39:55;21.20;99.90
13148;DHT22;6639;50.956;4.242;2023-10-19T01:42:23;21.10;99.90
13148;DHT22;6639;50.956;4.242;2023-10-19T01:44:50;20.90;99.90
13148;DHT22;6639;50.956;4.242;2023-10-19T01:47:16;21.20;99.90
13148;DHT22;6639;50.956;4.242;2023-10-19T01:49:45;21.40;99.90
13148;DHT22;6639;50.956;4.242;2023-10-19T01:52:17;21.10;99.90
13148;DHT22;6639;50.956;4.242;2023-10-19T01:54:45;21.30;99.90
13148;DHT22;6639;50.956;4.242;2023-10-19T01:57:11;21.30;99.90
13148;DHT22;6639;50.956;4.242;2023-10-19T01:59:41;21.40;99.90
13148;DHT22;6639;50.956;4.242;2023-10-19T02:02:09;21.50;99.90
13148;DHT22;6639;50.956;4.242;2023-10-19T02:04:37;21.40;99.90
13148;DHT22;6639;50.956;4.242;2023-10-19T02:07:07;21.30;99.90
13148;DHT22;6639;50.956;4.242;2023-10-19T02:09:39;21.50;99.90
13148;DHT22;6639;50.956;4.242;2023-10-19T02:12:06;21.50;99.90
13148;DHT22;6639;50.956;4.242;2023-10-19T02:14:33;21.30;99.90
13148;DHT22;6639;50.956;4.242;2023-10-19T02:17:01;21.60;99.90
13148;DHT22;6639;50.956;4.242;2023-10-19T02:19:29;21.70;99.90
13148;DHT22;6639;50.956;4.242;2023-10-19T02:21:57;21.50;99.90
13148;DHT22;6639;50.956;4.242;2023-10-19T02:24:24;21.20;99.90
13148;DHT22;6639;50.956;4.242;2023-10-19T02:26:53;21.50;99.90
13148;DHT22;6639;50.956;4.242;2023-10-19T02:29:20;21.50;99.90
13148;DHT22;6639;50.956;4.242;2023-10-19T02:31:49;21.80;99.90
13148;DHT22;6639;50.956;4.242;2023-10-19T02:34:16;21.60;99.90
13148;DHT22;6639;50.956;4.242;2023-10-19T02:36:44;21.40;99.90
13148;DHT22;6639;50.956;4.242;2023-10-19T02:39:13;21.30;99.90
13148;DHT22;6639;50.956;4.242;2023-10-19T02:41:41;21.60;99.90
13148;DHT22;6639;50.956;4.242;2023-10-19T02:44:10;21.50;99.90
13148;DHT22;6639;50.956;4.242;2023-10-19T02:46:45;21.80;99.90
13148;DHT22;6639;50.956;4.242;2023-10-19T02:49:15;21.90;99.90
13148;DHT22;6639;50.956;4.242;2023-10-19T02:51:44;21.60;99.90
13148;DHT22;6639;50.956;4.242;2023-10-19T02:54:12;21.70;99.90
13148;DHT22;6639;50.956;4.242;2023-10-19T02:56:45;21.60;99.90
13148;DHT22;6639;50.956;4.242;2023-10-19T02:59:14;21.60;99.90
13148;DHT22;6639;50.956;4.242;2023-10-19T03:01:41;21.20;99.90
13148;DHT22;6639;50.956;4.242;2023-10-19T03:04:10;21.20;99.90
13148;DHT22;6639;50.956;4.242;2023-10-19T03:06:39;21.10;99.90
13148;DHT22;6639;50.956;4.242;2023-10-19T03:09:08;21.40;99.90
13148;DHT22;6639;50.956;4.242;2023-10-19T03:11:39;21.80;99.90
13148;DHT22;6639;50.956;4.242;2023-10-19T03:14:07;22.00;99.90
13148;DHT22;6639;50.956;4.242;2023-10-19T03:16:34;21.90;99.90
13148;DHT22;6639;50.956;4.242;2023-10-19T03:19:01;22.00;99.90
13148;DHT22;6639;50.956;4.242;2023-10-19T03:21:29;22.30;99.90
13148;DHT22;6639;50.956;4.242;2023-10-19T03:24:00;22.30;99.90
13148;DHT22;6639;50.956;4.242;2023-10-19T03:26:38;22.50;99.90
13148;DHT22;6639;50.956;4.242;2023-10-19T03:29:08;22.40;99.90
13148;DHT22;6639;50.956;4.242;2023-10-19T03:31:41;22.30;99.90
13148;DHT22;6639;50.956;4.242;2023-10-19T03:34:11;22.10;99.90
13148;DHT22;6639;50.956;4.242;2023-10-19T03:36:39;22.10;99.90
13148;DHT22;6639;50.956;4.242;2023-10-19T03:39:09;22.20;99.90
13148;DHT22;6639;50.956;4.242;2023-10-19T03:41:39;22.30;99.90
13148;DHT22;6639;50.956;4.242;2023-10-19T03:44:08;22.50;99.90
13148;DHT22;6639;50.956;4.242;2023-10-19T03:46:39;22.60;99.90
13148;DHT22;6639;50.956;4.242;2023-10-19T03:49:18;22.90;99.90
13148;DHT22;6639;50.956;4.242;2023-10-19T03:51:45;23.10;99.90
13148;DHT22;6639;50.956;4.242;2023-10-19T03:54:27;23.00;99.90
13148;DHT22;6639;50.956;4.242;2023-10-19T03:56:54;23.20;99.90
13148;DHT22;6639;50.956;4.242;2023-10-19T03:59:22;23.00;99.90
13148;DHT22;6639;50.956;4.242;2023-10-19T04:01:55;23.20;99.90
13148;DHT22;6639;50.956;4.242;2023-10-19T04:04:25;23.30;99.90
13148;DHT22;6639;50.956;4.242;2023-10-19T04:06:52;23.10;99.90
13148;DHT22;6639;50.956;4.242;2023-10-19T04:09:23;23.20;99.90
13148;DHT22;6639;50.956;4.242;2023-10-19T04:11:55;23.40;99.90
13148;DHT22;6639;50.956;4.242;2023-10-19T04:14:23;23.50;99.90
13148;DHT22;6639;50.956;4.242;2023-10-19T04:16:50;23.40;99.90
13148;DHT22;6639;50.956;4.242;2023-10-19T04:19:17;23.30;99.90
13148;DHT22;6639;50.956;4.242;2023-10-19T04:21:44;23.50;99.90
13148;DHT22;6639;50.956;4.242;2023-10-19T04:24:12;23.50;99.90
13148;DHT22;6639;50.956;4.242;2023-10-19T04:26:39;23.30;99.90
13148;DHT22;6639;50.956;4.242;2023-10-19T04:29:09;22.80;99.90
13148;DHT22;6639;50.956;4.242;2023-10-19T04:31:37;22.80;99.90
13148;DHT22;6639;50.956;4.242;2023-10-19T04:34:07;22.60;99.90
13148;DHT22;6639;50.956;4.242;2023-10-19T04:36:34;22.50;99.90
13148;DHT22;6639;50.956;4.242;2023-10-19T04:39:01;22.70;99.90
13148;DHT22;6639;50.956;4.242;2023-10-19T04:41:28;22.70;99.90
13148;DHT22;6639;50.956;4.242;2023-10-19T04:43:55;22.40;99.90
13148;DHT22;6639;50.956;4.242;2023-10-19T04:46:25;22.50;99.90
13148;DHT22;6639;50.956;4.242;2023-10-19T04:48:55;22.20;99.90
13148;DHT22;6639;50.956;4.242;2023-10-19T04:51:21;22.40;99.90
13148;DHT22;6639;50.956;4.242;2023-10-19T04:53:48;22.20;99.90
13148;DHT22;6639;50.956;4.242;2023-10-19T04:56:15;22.30;99.90
13148;DHT22;6639;50.956;4.242;2023-10-19T04:58:42;22.40;99.90
13148;DHT22;6639;50.956;4.242;2023-10-19T05:01:09;22.60;99.90
13148;DHT22;6639;50.956;4.242;2023-10-19T05:03:38;22.70;99.90
13148;DHT22;6639;50.956;4.242;2023-10-19T05:06:05;22.80;99.90
13148;DHT22;6639;50.956;4.242;2023-10-19T05:08:32;22.80;99.90
13148;DHT22;6639;50.956;4.242;2023-10-19T05:10:59;23.00;99.90
13148;DHT22;6639;50.956;4.242;2023-10-19T05:13:26;23.10;99.90
13148;DHT22;6639;50.956;4.242;2023-10-19T05:15:53;23.10;99.90
13148;DHT22;6639;50.956;4.242;2023-10-19T05:18:21;23.20;99.90
13148;DHT22;6639;50.956;4.242;2023-10-19T05:20:50;23.20;99.90
13148;DHT22;6639;50.956;4.242;2023-10-19T05:23:21;23.10;99.90
13148;DHT22;6639;50.956;4.242;2023-10-19T05:25:49;22.60;99.90
13148;DHT22;6639;50.956;4.242;2023-10-19T05:28:17;22.60;99.90
13148;DHT22;6639;50.956;4.242;2023-10-19T05:30:45;22.50;99.90
13148;DHT22;6639;50.956;4.242;2023-10-19T05:33:12;22.50;99.90
13148;DHT22;6639;50.956;4.242;2023-10-19T05:35:38;22.60;99.90
13148;DHT22;6639;50.956;4.242;2023-10-19T05:38:08;22.40;99.90
13148;DHT22;6639;50.956;4.242;2023-10-19T05:40:35;22.00;99.90
13148;DHT22;6639;50.956;4.242;2023-10-19T05:43:04;21.80;99.90
13148;DHT22;6639;50.956;4.242;2023-10-19T05:45:33;22.10;99.90
13148;DHT22;6639;50.956;4.242;2023-10-19T05:48:02;22.20;99.90
13148;DHT22;6639;50.956;4.242;2023-10-19T05:50:32;22.30;99.90
13148;DHT22;6639;50.956;4.242;2023-10-19T05:52:58;22.40;99.90
13148;DHT22;6639;50.956;4.242;2023-10-19T05:55:27;22.70;99.90
13148;DHT22;6639;50.956;4.242;2023-10-19T05:57:54;22.80;99.90
13148;DHT22;6639;50.956;4.242;2023-10-19T06:00:21;22.80;99.90
13148;DHT22;6639;50.956;4.242;2023-10-19T06:02:51;22.90;99.90
13148;DHT22;6639;50.956;4.242;2023-10-19T06:05:19;22.90;99.90
13148;DHT22;6639;50.956;4.242;2023-10-19T06:07:47;22.70;99.90
13148;DHT22;6639;50.956;4.242;2023-10-19T06:10:17;22.10;99.90
13148;DHT22;6639;50.956;4.242;2023-10-19T06:12:46;22.30;99.90
13148;DHT22;6639;50.956;4.242;2023-10-19T06:15:14;22.40;99.90
13148;DHT22;6639;50.956;4.242;2023-10-19T06:17:42;22.60;99.90
13148;DHT22;6639;50.956;4.242;2023-10-19T06:20:12;22.50;99.90
13148;DHT22;6639;50.956;4.242;2023-10-19T06:22:49;21.80;99.90
13148;DHT22;6639;50.956;4.242;2023-10-19T06:25:17;21.70;99.90
13148;DHT22;6639;50.956;4.242;2023-10-19T06:27:46;21.50;99.90
13148;DHT22;6639;50.956;4.242;2023-10-19T06:30:13;21.20;99.90
13148;DHT22;6639;50.956;4.242;2023-10-19T06:32:46;21.20;99.90
13148;DHT22;6639;50.956;4.242;2023-10-19T06:35:13;21.60;99.90
13148;DHT22;6639;50.956;4.242;2023-10-19T06:37:40;21.50;99.90
13148;DHT22;6639;50.956;4.242;2023-10-19T06:40:08;21.40;99.90
13148;DHT22;6639;50.956;4.242;2023-10-19T06:42:37;21.40;99.90
13148;DHT22;6639;50.956;4.242;2023-10-19T06:45:06;21.30;99.90
13148;DHT22;6639;50.956;4.242;2023-10-19T06:47:35;21.10;99.90
13148;DHT22;6639;50.956;4.242;2023-10-19T06:50:05;21.30;99.90
13148;DHT22;6639;50.956;4.242;2023-10-19T06:52:33;21.40;99.90
13148;DHT22;6639;50.956;4.242;2023-10-19T06:55:01;21.50;99.90
13148;DHT22;6639;50.956;4.242;2023-10-19T06:57:29;21.70;99.90
13148;DHT22;6639;50.956;4.242;2023-10-19T06:59:56;22.00;99.90
13148;DHT22;6639;50.956;4.242;2023-10-19T07:02:24;21.90;99.90
13148;DHT22;6639;50.956;4.242;2023-10-19T07:04:52;22.20;99.90
13148;DHT22;6639;50.956;4.242;2023-10-19T07:07:19;22.10;99.90
13148;DHT22;6639;50.956;4.242;2023-10-19T07:09:45;22.30;99.90
13148;DHT22;6639;50.956;4.242;2023-10-19T07:12:12;22.20;99.90
13148;DHT22;6639;50.956;4.242;2023-10-19T07:14:39;22.60;99.90
13148;DHT22;6639;50.956;4.242;2023-10-19T07:17:07;22.70;99.90
13148;DHT22;6639;50.956;4.242;2023-10-19T07:19:35;23.00;99.90
13148;DHT22;6639;50.956;4.242;2023-10-19T07:22:03;23.20;99.90
13148;DHT22;6639;50.956;4.242;2023-10-19T07:24:30;23.50;99.90
13148;DHT22;6639;50.956;4.242;2023-10-19T07:26:58;23.60;99.90
13148;DHT22;6639;50.956;4.242;2023-10-19T07:29:33;23.70;99.90
13148;DHT22;6639;50.956;4.242;2023-10-19T07:32:01;23.40;99.90
13148;DHT22;6639;50.956;4.242;2023-10-19T07:34:31;23.20;99.90
13148;DHT22;6639;50.956;4.242;2023-10-19T07:37:00;23.40;99.90
13148;DHT22;6639;50.956;4.242;2023-10-19T07:39:27;23.50;99.90
13148;DHT22;6639;50.956;4.242;2023-10-19T07:41:56;23.40;99.90
13148;DHT22;6639;50.956;4.242;2023-10-19T07:44:23;23.60;99.90
13148;DHT22;6639;50.956;4.242;2023-10-19T07:46:51;23.70;99.90
13148;DHT22;6639;50.956;4.242;2023-10-19T07:49:19;23.90;99.90
13148;DHT22;6639;50.956;4.242;2023-10-19T07:51:47;23.90;99.90
13148;DHT22;6639;50.956;4.242;2023-10-19T07:54:16;24.10;99.90
13148;DHT22;6639;50.956;4.242;2023-10-19T07:56:43;24.10;99.90
13148;DHT22;6639;50.956;4.242;2023-10-19T07:59:11;23.90;99.90
13148;DHT22;6639;50.956;4.242;2023-10-19T08:01:38;23.90;99.90
13148;DHT22;6639;50.956;4.242;2023-10-19T08:04:05;23.30;99.90
13148;DHT22;6639;50.956;4.242;2023-10-19T08:06:32;23.20;99.90
13148;DHT22;6639;50.956;4.242;2023-10-19T08:08:59;22.90;99.90
13148;DHT22;6639;50.956;4.242;2023-10-19T08:11:27;23.10;99.90
13148;DHT22;6639;50.956;4.242;2023-10-19T08:13:54;23.00;99.90
13148;DHT22;6639;50.956;4.242;2023-10-19T08:16:21;23.20;99.90
13148;DHT22;6639;50.956;4.242;2023-10-19T08:18:49;23.30;99.90
13148;DHT22;6639;50.956;4.242;2023-10-19T08:21:18;23.00;99.90
13148;DHT22;6639;50.956;4.242;2023-10-19T08:23:45;23.10;99.90
13148;DHT22;6639;50.956;4.242;2023-10-19T08:26:13;23.20;99.90
13148;DHT22;6639;50.956;4.242;2023-10-19T08:28:42;23.10;99.90
13148;DHT22;6639;50.956;4.242;2023-10-19T08:31:09;23.30;99.90
13148;DHT22;6639;50.956;4.242;2023-10-19T08:33:36;23.80;99.90
13148;DHT22;6639;50.956;4.242;2023-10-19T08:36:05;23.60;99.90
13148;DHT22;6639;50.956;4.242;2023-10-19T08:38:32;24.00;99.90
13148;DHT22;6639;50.956;4.242;2023-10-19T08:40:59;24.20;99.90
13148;DHT22;6639;50.956;4.242;2023-10-19T08:43:27;24.20;99.90
13148;DHT22;6639;50.956;4.242;2023-10-19T08:45:55;24.20;99.90
13148;DHT22;6639;50.956;4.242;2023-10-19T08:48:22;24.40;99.90
13148;DHT22;6639;50.956;4.242;2023-10-19T08:50:50;24.40;99.90
13148;DHT22;6639;50.956;4.242;2023-10-19T08:53:19;24.80;99.90
13148;DHT22;6639;50.956;4.242;2023-10-19T08:55:47;24.70;99.90
13148;DHT22;6639;50.956;4.242;2023-10-19T08:58:16;24.50;99.90
13148;DHT22;6639;50.956;4.242;2023-10-19T09:00:46;24.30;99.90
13148;DHT22;6639;50.956;4.242;2023-10-19T09:03:20;23.60;99.90
13148;DHT22;6639;50.956;4.242;2023-10-19T09:05:47;23.50;99.90
13148;DHT22;6639;50.956;4.242;2023-10-19T09:08:15;23.90;99.90
13148;DHT22;6639;50.956;4.242;2023-10-19T09:10:43;24.10;99.90
13148;DHT22;6639;50.956;4.242;2023-10-19T09:13:12;24.00;99.90
13148;DHT22;6639;50.956;4.242;2023-10-19T09:15:41;23.90;99.90
13148;DHT22;6639;50.956;4.242;2023-10-19T09:18:15;23.60;99.90
13148;DHT22;6639;50.956;4.242;2023-10-19T09:20:45;23.80;99.90
13148;DHT22;6639;50.956;4.242;2023-10-19T09:23:23;23.80;99.90
13148;DHT22;6639;50.956;4.242;2023-10-19T09:25:51;23.70;99.90
13148;DHT22;6639;50.956;4.242;2023-10-19T09:28:19;23.80;99.90
13148;DHT22;6639;50.956;4.242;2023-10-19T09:30:47;23.90;99.90
13148;DHT22;6639;50.956;4.242;2023-10-19T09:33:16;24.00;99.90
13148;DHT22;6639;50.956;4.242;2023-10-19T09:35:46;24.20;99.90
13148;DHT22;6639;50.956;4.242;2023-10-19T09:38:14;24.20;99.90
13148;DHT22;6639;50.956;4.242;2023-10-19T09:40:41;24.20;99.90
13148;DHT22;6639;50.956;4.242;2023-10-19T09:43:16;24.40;99.90
13148;DHT22;6639;50.956;4.242;2023-10-19T09:45:48;24.30;99.90
13148;DHT22;6639;50.956;4.242;2023-10-19T09:48:18;23.90;99.90
13148;DHT22;6639;50.956;4.242;2023-10-19T09:50:53;24.10;99.90
13148;DHT22;6639;50.956;4.242;2023-10-19T09:53:22;24.30;99.90
13148;DHT22;6639;50.956;4.242;2023-10-19T09:55:51;24.70;99.90
13148;DHT22;6639;50.956;4.242;2023-10-19T09:58:24;24.80;99.90
13148;DHT22;6639;50.956;4.242;2023-10-19T10:00:52;24.40;99.90
13148;DHT22;6639;50.956;4.242;2023-10-19T10:03:44;24.30;99.90
13148;DHT22;6639;50.956;4.242;2023-10-19T10:06:13;24.50;99.90
13148;DHT22;6639;50.956;4.242;2023-10-19T10:08:42;24.60;99.90
13148;DHT22;6639;50.956;4.242;2023-10-19T10:11:16;24.70;99.90
13148;DHT22;6639;50.956;4.242;2023-10-19T10:13:43;24.40;99.90
13148;DHT22;6639;50.956;4.242;2023-10-19T10:16:13;24.60;99.90
13148;DHT22;6639;50.956;4.242;2023-10-19T10:18:41;24.70;99.90
13148;DHT22;6639;50.956;4.242;2023-10-19T10:21:12;24.80;99.90
13148;DHT22;6639;50.956;4.242;2023-10-19T10:23:42;25.00;99.90
13148;DHT22;6639;50.956;4.242;2023-10-19T10:26:11;24.90;99.90
13148;DHT22;6639;50.956;4.242;2023-10-19T10:28:39;24.60;99.90
13148;DHT22;6639;50.956;4.242;2023-10-19T10:31:08;24.70;99.90
13148;DHT22;6639;50.956;4.242;2023-10-19T10:33:44;24.50;99.90
13148;DHT22;6639;50.956;4.242;2023-10-19T10:36:16;24.40;99.90
13148;DHT22;6639;50.956;4.242;2023-10-19T10:38:44;24.80;99.90
13148;DHT22;6639;50.956;4.242;2023-10-19T10:41:11;24.90;99.90
13148;DHT22;6639;50.956;4.242;2023-10-19T10:43:51;24.90;99.90
13148;DHT22;6639;50.956;4.242;2023-10-19T10:46:23;24.90;99.90
13148;DHT22;6639;50.956;4.242;2023-10-19T10:48:51;24.80;99.90
13148;DHT22;6639;50.956;4.242;2023-10-19T10:51:21;25.30;99.90
13148;DHT22;6639;50.956;4.242;2023-10-19T10:53:49;25.70;99.90
13148;DHT22;6639;50.956;4.242;2023-10-19T10:56:17;25.60;99.90
13148;DHT22;6639;50.956;4.242;2023-10-19T10:58:44;25.60;99.90
13148;DHT22;6639;50.956;4.242;2023-10-19T11:01:11;25.50;99.90
13148;DHT22;6639;50.956;4.242;2023-10-19T11:03:40;25.30;99.90
13148;DHT22;6639;50.956;4.242;2023-10-19T11:06:07;25.20;99.90
13148;DHT22;6639;50.956;4.242;2023-10-19T11:08:37;25.20;99.90
13148;DHT22;6639;50.956;4.242;2023-10-19T11:11:06;25.40;99.90
13148;DHT22;6639;50.956;4.242;2023-10-19T11:13:36;25.40;99.90
13148;DHT22;6639;50.956;4.242;2023-10-19T11:16:05;25.60;99.90
13148;DHT22;6639;50.956;4.242;2023-10-19T11:18:37;25.80;99.90
13148;DHT22;6639;50.956;4.242;2023-10-19T11:21:06;25.80;99.90
13148;DHT22;6639;50.956;4.242;2023-10-19T11:23:37;25.50;99.90
13148;DHT22;6639;50.956;4.242;2023-10-19T11:26:03;25.40;99.90
13148;DHT22;6639;50.956;4.242;2023-10-19T11:28:31;25.60;99.90
13148;DHT22;6639;50.956;4.242;2023-10-19T11:31:13;25.50;99.90
13148;DHT22;6639;50.956;4.242;2023-10-19T11:33:41;25.40;99.90
13148;DHT22;6639;50.956;4.242;2023-10-19T11:36:09;25.00;99.90
13148;DHT22;6639;50.956;4.242;2023-10-19T11:38:40;25.20;99.90
13148;DHT22;6639;50.956;4.242;2023-10-19T11:41:08;25.40;99.90
13148;DHT22;6639;50.956;4.242;2023-10-19T11:43:35;25.10;99.90
13148;DHT22;6639;50.956;4.242;2023-10-19T11:46:02;25.10;99.90
13148;DHT22;6639;50.956;4.242;2023-10-19T11:48:31;25.20;99.90
13148;DHT22;6639;50.956;4.242;2023-10-19T11:50:59;25.30;99.90
13148;DHT22;6639;50.956;4.242;2023-10-19T11:53:26;25.40;99.90
13148;DHT22;6639;50.956;4.242;2023-10-19T11:56:00;25.80;99.90
13148;DHT22;6639;50.956;4.242;2023-10-19T11:58:29;25.60;99.90
13148;DHT22;6639;50.956;4.242;2023-10-19T12:00:58;25.40;99.90
13148;DHT22;6639;50.956;4.242;2023-10-19T12:03:25;25.00;99.90
13148;DHT22;6639;50.956;4.242;2023-10-19T12:05:52;24.80;99.90
13148;DHT22;6639;50.956;4.242;2023-10-19T12:08:20;24.50;99.90
13148;DHT22;6639;50.956;4.242;2023-10-19T12:10:47;24.50;99.90
13148;DHT22;6639;50.956;4.242;2023-10-19T12:13:16;24.30;99.90
13148;DHT22;6639;50.956;4.242;2023-10-19T12:15:43;24.70;99.90
13148;DHT22;6639;50.956;4.242;2023-10-19T12:18:17;24.80;99.90
13148;DHT22;6639;50.956;4.242;2023-10-19T12:20:44;24.70;99.90
13148;DHT22;6639;50.956;4.242;2023-10-19T12:23:12;24.20;99.90
13148;DHT22;6639;50.956;4.242;2023-10-19T12:25:39;24.40;99.90
13148;DHT22;6639;50.956;4.242;2023-10-19T12:28:08;24.20;99.90
13148;DHT22;6639;50.956;4.242;2023-10-19T12:30:41;24.30;99.90
13148;DHT22;6639;50.956;4.242;2023-10-19T12:33:08;23.60;99.90
13148;DHT22;6639;50.956;4.242;2023-10-19T12:35:38;24.10;99.90
13148;DHT22;6639;50.956;4.242;2023-10-19T12:38:15;23.90;99.90
13148;DHT22;6639;50.956;4.242;2023-10-19T12:40:43;24.10;99.90
13148;DHT22;6639;50.956;4.242;2023-10-19T12:43:12;24.30;99.90
13148;DHT22;6639;50.956;4.242;2023-10-19T12:45:41;24.20;99.90
13148;DHT22;6639;50.956;4.242;2023-10-19T12:48:09;24.10;99.90
13148;DHT22;6639;50.956;4.242;2023-10-19T12:50:37;23.80;99.90
13148;DHT22;6639;50.956;4.242;2023-10-19T12:53:07;23.90;99.90
13148;DHT22;6639;50.956;4.242;2023-10-19T12:55:34;24.30;99.90
13148;DHT22;6639;50.956;4.242;2023-10-19T12:58:03;24.20;99.90
13148;DHT22;6639;50.956;4.242;2023-10-19T13:00:35;24.40;99.90
13148;DHT22;6639;50.956;4.242;2023-10-19T13:03:11;24.20;99.90
13148;DHT22;6639;50.956;4.242;2023-10-19T13:05:42;24.70;99.90
13148;DHT22;6639;50.956;4.242;2023-10-19T13:08:10;25.20;99.90
13148;DHT22;6639;50.956;4.242;2023-10-19T13:10:40;25.50;99.90
13148;DHT22;6639;50.956;4.242;2023-10-19T13:13:09;25.70;99.90
13148;DHT22;6639;50.956;4.242;2023-10-19T13:15:39;25.70;99.90
13148;DHT22;6639;50.956;4.242;2023-10-19T13:18:08;25.60;99.90
13148;DHT22;6639;50.956;4.242;2023-10-19T13:20:37;25.30;99.90
13148;DHT22;6639;50.956;4.242;2023-10-19T13:23:09;25.70;99.90
13148;DHT22;6639;50.956;4.242;2023-10-19T13:25:38;25.70;99.90
13148;DHT22;6639;50.956;4.242;2023-10-19T13:28:08;26.00;99.90
13148;DHT22;6639;50.956;4.242;2023-10-19T13:30:39;25.90;99.90
13148;DHT22;6639;50.956;4.242;2023-10-19T13:33:06;25.60;99.90
13148;DHT22;6639;50.956;4.242;2023-10-19T13:35:37;25.90;99.90
13148;DHT22;6639;50.956;4.242;2023-10-19T13:38:05;26.00;99.90
13148;DHT22;6639;50.956;4.242;2023-10-19T13:40:33;26.00;99.90
13148;DHT22;6639;50.956;4.242;2023-10-19T13:43:00;26.00;99.90
13148;DHT22;6639;50.956;4.242;2023-10-19T13:45:27;26.00;99.90
13148;DHT22;6639;50.956;4.242;2023-10-19T13:47:55;26.10;99.90
13148;DHT22;6639;50.956;4.242;2023-10-19T13:50:22;26.30;99.90
13148;DHT22;6639;50.956;4.242;2023-10-19T13:52:52;26.30;99.90
13148;DHT22;6639;50.956;4.242;2023-10-19T13:55:20;26.00;99.90
13148;DHT22;6639;50.956;4.242;2023-10-19T13:57:47;26.00;99.90
13148;DHT22;6639;50.956;4.242;2023-10-19T14:00:15;26.30;99.90
13148;DHT22;6639;50.956;4.242;2023-10-19T14:02:49;26.10;99.90
13148;DHT22;6639;50.956;4.242;2023-10-19T14:05:16;26.00;99.90
13148;DHT22;6639;50.956;4.242;2023-10-19T14:07:51;26.20;99.90
13148;DHT22;6639;50.956;4.242;2023-10-19T14:10:19;26.80;99.90
13148;DHT22;6639;50.956;4.242;2023-10-19T14:12:47;26.30;99.90
13148;DHT22;6639;50.956;4.242;2023-10-19T14:15:16;26.30;99.90
13148;DHT22;6639;50.956;4.242;2023-10-19T14:17:44;26.20;99.90
13148;DHT22;6639;50.956;4.242;2023-10-19T14:20:12;25.90;99.90
13148;DHT22;6639;50.956;4.242;2023-10-19T14:22:43;26.20;99.90
13148;DHT22;6639;50.956;4.242;2023-10-19T14:25:13;26.60;99.90
13148;DHT22;6639;50.956;4.242;2023-10-19T14:27:40;26.60;99.90
13148;DHT22;6639;50.956;4.242;2023-10-19T14:30:08;26.90;99.90
13148;DHT22;6639;50.956;4.242;2023-10-19T14:32:37;26.50;99.90
13148;DHT22;6639;50.956;4.242;2023-10-19T14:35:05;26.70;99.90
13148;DHT22;6639;50.956;4.242;2023-10-19T14:37:35;26.70;99.90
13148;DHT22;6639;50.956;4.242;2023-10-19T14:40:07;27.00;99.90
13148;DHT22;6639;50.956;4.242;2023-10-19T14:42:37;27.10;99.90
13148;DHT22;6639;50.956;4.242;2023-10-19T14:45:07;27.20;99.90
13148;DHT22;6639;50.956;4.242;2023-10-19T14:47:36;27.60;99.90
13148;DHT22;6639;50.956;4.242;2023-10-19T14:50:03;27.80;99.90
13148;DHT22;6639;50.956;4.242;2023-10-19T14:52:30;27.50;99.90
13148;DHT22;6639;50.956;4.242;2023-10-19T14:54:57;27.00;99.90
13148;DHT22;6639;50.956;4.242;2023-10-19T14:57:25;26.70;99.90
13148;DHT22;6639;50.956;4.242;2023-10-19T14:59:54;26.40;99.90
13148;DHT22;6639;50.956;4.242;2023-10-19T15:02:21;26.40;99.90
13148;DHT22;6639;50.956;4.242;2023-10-19T15:04:49;26.60;99.90
13148;DHT22;6639;50.956;4.242;2023-10-19T15:07:16;26.40;99.90
13148;DHT22;6639;50.956;4.242;2023-10-19T15:09:44;26.50;99.90
13148;DHT22;6639;50.956;4.242;2023-10-19T15:12:11;26.50;99.90
13148;DHT22;6639;50.956;4.242;2023-10-19T15:14:40;26.20;99.90
13148;DHT22;6639;50.956;4.242;2023-10-19T15:17:09;26.10;99.90
13148;DHT22;6639;50.956;4.242;2023-10-19T15:19:37;25.60;99.90
13148;DHT22;6639;50.956;4.242;2023-10-19T15:22:04;25.60;99.90
13148;DHT22;6639;50.956;4.242;2023-10-19T15:24:31;25.50;99.90
13148;DHT22;6639;50.956;4.242;2023-10-19T15:26:58;25.60;99.90
13148;DHT22;6639;50.956;4.242;2023-10-19T15:29:26;26.00;99.90
13148;DHT22;6639;50.956;4.242;2023-10-19T15:31:53;26.10;99.90
13148;DHT22;6639;50.956;4.242;2023-10-19T15:34:22;26.00;99.90
13148;DHT22;6639;50.956;4.242;2023-10-19T15:36:50;25.30;99.90
13148;DHT22;6639;50.956;4.242;2023-10-19T15:39:17;25.10;99.90
13148;DHT22;6639;50.956;4.242;2023-10-19T15:41:44;24.90;99.90
13148;DHT22;6639;50.956;4.242;2023-10-19T15:44:11;24.80;99.90
13148;DHT22;6639;50.956;4.242;2023-10-19T15:46:38;25.00;99.90
13148;DHT22;6639;50.956;4.242;2023-10-19T15:49:08;24.80;99.90
13148;DHT22;6639;50.956;4.242;2023-10-19T15:51:36;24.70;99.90
13148;DHT22;6639;50.956;4.242;2023-10-19T15:54:03;24.60;99.90
13148;DHT22;6639;50.956;4.242;2023-10-19T15:56:31;24.90;99.90